Overview Statistics Trail Chart Weather Telemetry Raw packets
 

This is the latest recevied weather packets stored in our database for station/object OE6JUE. If no packets are shown the sender has not sent any weather packets the latest 10 day(s).

<< 95 96 97 98 99 100 101 >>
Time Temp. Humidity Pressure Rain* Wind** Luminosity Snow
1787980414 17.78° C 80% 1017.3 hPa 0 mm - - -
1787980113 17.78° C 80% 1017.4 hPa 0 mm - - -
1787979813 17.78° C 80% 1017.4 hPa 0 mm - - -
1787979514 17.78° C 78% 1017.4 hPa 0 mm - - -
1787979214 17.78° C 77% 1017.5 hPa 0.25 mm - - -
1787978914 17.78° C 75% 1017.5 hPa 0.25 mm - - -
1787978613 17.78° C 75% 1017.5 hPa 0.51 mm - - -
1787978314 17.78° C 77% 1017.6 hPa 0.51 mm - - -
1787978013 17.22° C 81% 1017.4 hPa 0.51 mm - - -
1787977713 17.22° C 81% 1017.5 hPa 0.51 mm - - -
1787977413 17.22° C 81% 1017.5 hPa 0.51 mm - - -
1787977113 17.78° C 74% 1017.3 hPa 0.51 mm - - -
1787976814 17.78° C 73% 1017.4 hPa 0.51 mm - - -
1787976514 18.33° C 71% 1017.4 hPa 0.51 mm - - -
1787976213 18.33° C 70% 1017.4 hPa 0.51 mm - - -
1787975913 18.89° C 67% 1017.7 hPa 0.25 mm - - -
1787975613 20° C 61% 1017.6 hPa 0.25 mm - - -
1787975313 20.56° C 53% 1017.5 hPa 0 mm - - -
1787975014 21.11° C 51% 1017.6 hPa 0 mm - - -
1787974714 21.67° C 47% 1017.2 hPa 0 mm - - -
1787974413 21.67° C 45% 1017 hPa 0 mm - - -
1787974114 21.67° C 45% 1016.9 hPa 0 mm - - -
1787973813 21.67° C 45% 1016.6 hPa 0 mm - - -
1787973513 21.67° C 46% 1016.8 hPa 0 mm - - -
1787973213 21.67° C 45% 1016.5 hPa 0 mm - - -

* Rain latest hour (hover to see other rain measurements)
** Current wind speed in m/s (hover to see current wind gust speed)